DW4338 Bergen NO current weather conditions

sailwx.info

Wind from 099 at 7 knots gusting 15

Air temperature 11.7° C
Dewpoint 10.6° C

Last reported at 2014-Aug-23 06:55 UTC.
Time now 2014-Aug-23 07:34 UTC

Location: N 60°31' E 004°54'.
View on Google Maps.

See reports from other nearby stations

  
Tides and Currents Weather Stations Pressure Air Temp Water Temp Dewpoint Dewpoint Depression Visibility Wind Speed Wind Dir Waves Ship Positions
date/time (UTC)wind fromknots sea level pressurealtimeterstation pressurevisibilityair tempwater tempwave heightnotes
2014-Aug-23 06:55 099 7 gusting 15 11.7
2014-Aug-23 06:39 111 8 gusting 14 11.1
2014-Aug-23 06:24 108 8 gusting 16 11.1
2014-Aug-23 06:09 111 10 gusting 17 11.7
2014-Aug-23 05:54 113 7 gusting 13 11.1
2014-Aug-23 05:38 125 1 gusting 9 11.1
2014-Aug-23 05:24 126 4 gusting 8 11.1
2014-Aug-23 04:53 129 2 gusting 9 10.6
2014-Aug-23 04:38 129 2 gusting 9 10.6
2014-Aug-23 04:23 129 3 gusting 7 10.6
2014-Aug-23 04:08 129 0 gusting 6 10.6
2014-Aug-23 03:54 129 10.6
2014-Aug-23 03:37 129 10.0
2014-Aug-23 03:22 129 1 gusting 6 10.0
2014-Aug-23 03:07 129 10.6
2014-Aug-23 02:52 129 10.6
2014-Aug-23 02:37 129 10.6
2014-Aug-23 02:22 129 10.6
2014-Aug-23 02:06 129 10.6
2014-Aug-23 01:50 129 10.6
2014-Aug-23 01:35 129 10.6
2014-Aug-23 01:21 129 3 gusting 6 10.6
2014-Aug-23 01:06 129 10.6
2014-Aug-23 00:50 129 10.6
2014-Aug-23 00:37 129 10.6
2014-Aug-23 00:20 129 10.6
2014-Aug-23 00:04 129 10.6
2014-Aug-22 23:51 129 10.6
2014-Aug-22 23:35 129 10.0
2014-Aug-22 23:20 129 4 gusting 6 10.6
2014-Aug-22 23:05 129 10.6
2014-Aug-22 22:49 129 10.6
2014-Aug-22 22:34 129 10.6
2014-Aug-22 22:19 129 10.6
2014-Aug-22 22:04 129 10.6
2014-Aug-22 21:49 129 10.6
2014-Aug-22 21:33 129 10.0
2014-Aug-22 21:18 129 10.0
2014-Aug-22 21:03 129 10.0
2014-Aug-22 20:48 129 10.0
2014-Aug-22 20:33 129 10.0
2014-Aug-22 20:18 129 10.0
2014-Aug-22 20:03 129 10.6
2014-Aug-22 19:47 129 10.6
2014-Aug-22 19:32 129 10.6
2014-Aug-22 19:17 129 10.6
2014-Aug-22 19:02 129 11.1
2014-Aug-22 18:47 129 11.1
2014-Aug-22 18:32 129 11.1
2014-Aug-22 18:17 129 3 gusting 8 11.1
2014-Aug-22 18:01 129 11.1
2014-Aug-22 17:45 126 6 gusting 17 11.1
2014-Aug-22 17:31 093 19 gusting 34 11.1
2014-Aug-22 17:16 110 18 gusting 30 12.8
2014-Aug-22 17:01 350 1 gusting 6 13.9
2014-Aug-22 16:46 350 1 gusting 7 13.9
2014-Aug-22 16:30 350 6 gusting 13 13.9
2014-Aug-22 16:15 350 7 gusting 15 14.4
2014-Aug-22 16:00 342 7 gusting 17 14.4
2014-Aug-22 15:44 346 7 gusting 20 14.4
2014-Aug-22 15:30 348 11 gusting 30 14.4
2014-Aug-22 15:15 355 15 gusting 26 15.0
2014-Aug-22 14:59 345 16 gusting 26 15.0
2014-Aug-22 14:44 348 13 gusting 26 14.4
2014-Aug-22 14:29 350 13 gusting 25 13.9
2014-Aug-22 14:14 342 12 gusting 20 14.4
2014-Aug-22 13:59 325 10 gusting 26 14.4
2014-Aug-22 13:44 318 13 gusting 23 14.4
2014-Aug-22 13:29 317 17 gusting 30 15.0
2014-Aug-22 13:13 318 17 gusting 28 15.0
2014-Aug-22 12:58 300 15 gusting 33 15.0
2014-Aug-22 12:43 310 15 gusting 26 15.6
2014-Aug-22 12:28 294 13 gusting 29 15.6
2014-Aug-22 12:13 311 13 gusting 25 15.0
2014-Aug-22 11:58 317 13 gusting 25 15.6
2014-Aug-22 11:42 329 9 gusting 20 15.6
2014-Aug-22 11:27 329 7 gusting 16 15.0
2014-Aug-22 11:11 342 11 gusting 23 15.0
2014-Aug-22 10:57 330 12 gusting 24 15.0
2014-Aug-22 10:42 329 11 gusting 18 15.6
2014-Aug-22 10:26 332 0 gusting 7 15.6
2014-Aug-22 10:11 332 15.0
2014-Aug-22 09:56 332 0 gusting 5 14.4
2014-Aug-22 09:41 332 0 gusting 11 14.4
2014-Aug-22 09:26 332 14.4
2014-Aug-22 09:11 332 14.4
2014-Aug-22 08:56 332 4 gusting 12 13.9
2014-Aug-22 08:40 332 0 gusting 6 14.4
2014-Aug-22 08:25 332 13.9
2014-Aug-22 08:09 332 0 gusting 8 13.3
2014-Aug-22 07:55 326 1 gusting 15 12.8
2014-Aug-22 07:40 326 3 gusting 13 12.2
2014-Aug-22 07:24 326 1 gusting 9 11.7
2014-Aug-22 07:09 326 11.7
2014-Aug-22 06:54 326 0 gusting 5 11.1
2014-Aug-22 06:39 326 11.1
2014-Aug-22 06:24 326 10.6
2014-Aug-22 06:08 326 10.6
2014-Aug-22 05:53 326 10.6
2014-Aug-22 05:37 326 10.0
2014-Aug-22 05:23 326 10.0
2014-Aug-22 05:08 326 10.0
2014-Aug-22 04:53 326 10.0
2014-Aug-22 04:38 326 10.0
2014-Aug-22 04:22 326 10.0
2014-Aug-22 04:07 326 10.0
2014-Aug-22 03:51 326 10.0
2014-Aug-22 03:37 326 10.0
2014-Aug-22 03:22 326 10.0
2014-Aug-22 03:07 326 10.0
2014-Aug-22 02:51 326 10.0
2014-Aug-22 02:36 326 10.0
2014-Aug-22 02:21 326 10.0
2014-Aug-22 02:06 326 10.0
2014-Aug-22 01:51 326 10.6
2014-Aug-22 01:36 326 10.6
2014-Aug-22 01:20 326 10.0
2014-Aug-22 01:04 326 10.6
2014-Aug-22 00:51 326 10.6
2014-Aug-22 00:35 326 10.6
2014-Aug-22 00:20 326 10.6
2014-Aug-22 00:05 326 10.6
2014-Aug-21 23:49 326 10.6
2014-Aug-21 23:34 326 10.6
2014-Aug-21 23:19 326 10.6
2014-Aug-21 23:04 326 10.6
2014-Aug-21 22:49 326 10.6
2014-Aug-21 22:34 326 10.6
2014-Aug-21 22:18 326 10.6
2014-Aug-21 22:02 326 10.6
2014-Aug-21 21:48 326 10.6
2014-Aug-21 21:33 326 10.6
2014-Aug-21 21:18 326 10.6
2014-Aug-21 21:03 326 10.6
2014-Aug-21 20:48 326 10.6
2014-Aug-21 20:32 326 10.6
2014-Aug-21 20:17 326 11.1
2014-Aug-21 20:02 326 5 gusting 9 11.1
2014-Aug-21 19:47 326 3 gusting 9 11.1
2014-Aug-21 19:32 326 3 gusting 9 11.1
2014-Aug-21 19:17 326 3 gusting 6 11.1
2014-Aug-21 19:01 326 11.7
2014-Aug-21 18:46 326 4 gusting 12 11.7
2014-Aug-21 18:31 326 6 gusting 10 12.2
2014-Aug-21 18:16 326 12.8
2014-Aug-21 18:01 326 5 gusting 13 12.8
2014-Aug-21 17:46 326 4 gusting 12 12.8
2014-Aug-21 17:30 326 6 gusting 12 12.8
2014-Aug-21 17:14 326 7 gusting 14 12.8
2014-Aug-21 17:00 326 7 gusting 16 13.3
2014-Aug-21 16:45 326 8 gusting 20 13.9
2014-Aug-21 16:29 316 10 gusting 18 13.9
2014-Aug-21 16:16 316 10 gusting 19 13.3
2014-Aug-21 16:00 316 8 gusting 19 13.9
2014-Aug-21 15:44 315 10 gusting 17 13.9
2014-Aug-21 15:29 318 12 gusting 23 13.9
2014-Aug-21 15:14 317 6 gusting 19 13.9
2014-Aug-21 14:59 317 9 gusting 19 13.3
2014-Aug-21 14:44 313 12 gusting 20 13.3
2014-Aug-21 14:29 317 8 gusting 17 13.3
2014-Aug-21 14:12 318 10 gusting 21 13.3
2014-Aug-21 13:58 317 12 gusting 24 13.3
2014-Aug-21 13:43 317 10 gusting 16 12.8
2014-Aug-21 13:28 317 11 gusting 19 13.9
2014-Aug-21 13:13 314 7 gusting 19 13.9
2014-Aug-21 12:58 315 10 gusting 18 13.3
2014-Aug-21 12:42 316 10 gusting 24 13.3
2014-Aug-21 12:27 319 9 gusting 19 13.3
2014-Aug-21 12:11 317 7 gusting 18 13.3
2014-Aug-21 11:57 312 7 gusting 19 13.3
2014-Aug-21 11:42 302 11 gusting 24 13.3
2014-Aug-21 11:27 274 6 gusting 15 12.8
2014-Aug-21 11:10 139 4 gusting 11 12.8
2014-Aug-21 10:55 113 5 gusting 11 12.2
2014-Aug-21 10:41 103 12.2
2014-Aug-21 10:25 103 11.7
2014-Aug-21 10:11 103 11.1
2014-Aug-21 09:56 084 5 gusting 11 11.1
2014-Aug-21 09:40 080 0 gusting 8 11.1
2014-Aug-21 09:26 113 2 gusting 10 11.1
2014-Aug-21 09:10 121 11.7
2014-Aug-21 08:54 121 12.2
2014-Aug-21 08:40 114 6 gusting 13 11.7
2014-Aug-21 08:24 323 11.1
2014-Aug-21 08:09 323 11.1
2014-Aug-21 07:54 323 6 gusting 13 11.1
2014-Aug-21 07:39 323 4 gusting 12 11.1
2014-Aug-21 07:24 323 11.1
2014-Aug-21 07:09 323 11.1